Langkawi, Malaysia
Current Conditions -  °F | °C
As of 4:00 PM on Wednesday 22 Oct 2014 (Local Time) from WMKL Reporting Station
Light Rain Light Rain  
Wind Chill: 86°   Ceiling: 26000
Heat Index: 99°   Visibility: 4mi
Dew Point: 79°   Wind: 5mph
Humidity: 79%   Direction: 240°WSW
Pressure: 29.8"   Gusts: NA
Location:  6.37°N, 99.78°E
Report Text: WMKL 220800Z 24004KT 6000 -RA FEW010 FEW017CB SCT025 BKN260 30/26 Q1009
Loading
Personal Weather Stations






























Interactive Weather Map
Tropical Storm Tracking
New forecast layout! Learn more

10-Day Weather Forecast

Advertisements
Track Severe Weather on mobile